Data for 05/28/2018

Time Sea-Level Adjusted Pressure Absolute Pressure Temperature Relative Humidity Dew Point   
(mb) (inHg) (mb) (inHg) (C) (F) (%) (C) (F)
00:05 1021 30.15 850 25.1 15.1 59.1 64 8.3 46.9
00:10 1021 30.15 850 25.1 15.1 59.2 64 8.4 47.1
00:15 1021 30.15 850 25.1 15 59 64 8.3 47
00:20 1021 30.15 850 25.1 15 58.9 64 8.2 46.8
00:25 1021 30.15 850 25.1 15 58.9 64 8.3 46.9
00:30 1021 30.15 850 25.1 14.9 58.9 61 7.6 45.6
00:35 1021 30.15 850 25.1 15 59.1 59 7.2 45
00:40 1021 30.15 851 25.13 15 59 60 7.4 45.2
00:45 1021 30.15 851 25.13 14.9 58.9 60 7.4 45.3
00:50 1021 30.15 851 25.13 14.8 58.7 61 7.4 45.4
00:55 1021 30.15 851 25.13 14.7 58.4 63 7.7 45.8
01:00 1021 30.15 850 25.1 14.5 58 64 7.7 45.9
01:05 1021 30.15 850 25.1 14.3 57.8 64 7.7 45.9
01:10 1021 30.15 850 25.1 14.2 57.5 65 7.7 45.8
01:15 1021 30.15 850 25.1 14.1 57.4 64 7.4 45.4
01:20 1021 30.15 850 25.1 14 57.3 65 7.6 45.6
01:25 1021 30.15 850 25.1 13.8 56.9 67 7.9 46.2
01:30 1021 30.15 850 25.1 13.5 56.4 69 8.1 46.6
01:35 1021 30.15 850 25.1 13.4 56.1 70 8 46.4
01:40 1020 30.12 850 25.1 13.3 55.9 69 7.9 46.2
01:45 1020 30.12 850 25.1 13.3 55.9 70 7.9 46.3
01:50 1020 30.12 849 25.07 13.3 55.9 68 7.6 45.6
01:55 1020 30.12 849 25.07 13.6 56.4 66 7.3 45.1
02:00 1020 30.12 849 25.07 13.9 57 62 6.8 44.2
02:05 1020 30.12 849 25.07 14.2 57.6 60 6.6 43.9
02:10 1020 30.12 849 25.07 14.3 57.8 60 6.8 44.3
02:15 1020 30.12 849 25.07 14.4 57.8 60 6.7 44
02:20 1020 30.12 850 25.1 14.3 57.8 60 6.8 44.2
02:25 1020 30.12 850 25.1 14.3 57.8 60 6.8 44.2
02:30 1020 30.12 850 25.1 14.2 57.6 60 6.7 44
02:35 1020 30.12 849 25.07 14.3 57.7 59 6.5 43.7
02:40 1020 30.12 849 25.07 14.3 57.7 59 6.6 43.8
02:45 1020 30.12 849 25.07 14.2 57.6 60 6.6 43.8
02:50 1020 30.12 849 25.07 14.2 57.6 60 6.6 44
02:55 1020 30.12 849 25.07 14.1 57.4 61 6.9 44.3
03:00 1020 30.12 849 25.07 13.9 57 61 6.7 44
03:05 1020 30.12 849 25.07 14 57.1 60 6.5 43.6
03:10 1020 30.12 849 25.07 14.1 57.4 60 6.5 43.7
03:15 1020 30.12 849 25.07 14.1 57.4 60 6.6 43.8
03:20 1020 30.12 849 25.07 14 57.2 61 6.7 44
03:25 1020 30.12 849 25.07 13.7 56.7 65 7.3 45.1
03:30 1020 30.12 849 25.07 13.3 55.9 65 7 44.6
03:35 1020 30.12 849 25.07 13.2 55.7 66 7 44.5
03:40 1020 30.12 849 25.07 13.1 55.5 65 6.8 44.2
03:45 1020 30.12 849 25.07 13.1 55.5 66 7 44.6
03:50 1020 30.12 849 25.07 13 55.3 66 6.9 44.4
03:55 1020 30.12 849 25.07 12.9 55.1 67 6.9 44.4
04:00 1020 30.12 849 25.07 12.8 55.1 67 6.8 44.3
04:05 1020 30.12 849 25.07 12.8 55 67 6.8 44.2
04:10 1020 30.12 849 25.07 12.8 55 67 6.8 44.2
04:15 1020 30.12 849 25.07 12.9 55.1 66 6.7 44
04:20 1020 30.12 849 25.07 13 55.4 66 6.8 44.3
04:25 1020 30.12 849 25.07 13 55.5 65 6.7 44.1
04:30 1020 30.12 849 25.07 13.3 55.9 64 6.8 44.2
04:35 1020 30.12 849 25.07 13.4 56.1 64 6.9 44.4
04:40 1020 30.12 849 25.07 13.3 56 65 6.9 44.5
04:45 1020 30.12 849 25.07 13.4 56 64 6.8 44.3
04:50 1020 30.12 849 25.07 13.4 56.1 65 6.9 44.4
04:55 1020 30.12 849 25.07 13.3 56 65 7 44.5
05:00 1020 30.12 849 25.07 13.2 55.7 66 7 44.6
05:05 1020 30.12 849 25.07 13.1 55.6 66 7 44.5
05:10 1020 30.12 849 25.07 13.1 55.6 66 6.9 44.4
05:15 1020 30.12 849 25.07 13.1 55.5 66 7 44.5
05:20 1020 30.12 849 25.07 13.1 55.5 66 6.9 44.5
05:25 1020 30.12 849 25.07 13 55.4 67 7.1 44.8
05:30 1020 30.12 849 25.07 12.9 55.3 67 7.1 44.7
05:35 1020 30.12 849 25.07 12.7 54.8 69 7.1 44.8
05:40 1020 30.12 849 25.07 12.5 54.5 69 7.1 44.7
05:45 1020 30.12 849 25.07 12.5 54.5 69 7 44.7
05:50 1020 30.12 849 25.07 12.4 54.4 69 7 44.7
05:55 1020 30.12 849 25.07 12.4 54.2 70 7.1 44.8
06:00 1020 30.12 849 25.07 12.1 53.8 71 7.1 44.8
06:05 1020 30.12 849 25.07 11.9 53.4 72 7 44.6
06:10 1020 30.12 849 25.07 11.9 53.4 71 6.9 44.4
06:15 1020 30.12 849 25.07 12.1 53.9 70 6.8 44.2
06:20 1020 30.12 849 25.07 12.5 54.6 69 7 44.5
06:25 1020 30.12 849 25.07 12.5 54.4 70 7.2 44.9
06:30 1020 30.12 849 25.07 12.1 53.8 71 7.1 44.8
06:35 1020 30.12 849 25.07 11.9 53.4 72 7.1 44.7
06:40 1020 30.12 849 25.07 11.8 53.3 72 7.1 44.7
06:45 1020 30.12 849 25.07 11.9 53.4 72 7.1 44.7
06:50 1020 30.12 850 25.1 11.8 53.3 72 7 44.6
06:55 1020 30.12 850 25.1 12 53.5 71 6.9 44.4
07:00 1020 30.12 850 25.1 12.1 53.8 71 7 44.6
07:05 1020 30.12 850 25.1 12.5 54.6 69 7.1 44.7
07:10 1020 30.12 850 25.1 12.8 55 68 7.1 44.7
07:15 1020 30.12 850 25.1 12.4 54.3 71 7.4 45.4
07:20 1020 30.12 850 25.1 12.5 54.4 69 6.9 44.4
07:25 1020 30.12 849 25.07 12.5 54.5 69 7.1 44.7
07:30 1020 30.12 849 25.07 12.9 55.2 68 7.3 45.1
07:35 1020 30.12 850 25.1 13.3 56 68 7.5 45.6
07:40 1020 30.12 850 25.1 13.7 56.7 66 7.6 45.7
07:45 1020 30.12 849 25.07 14 57.2 65 7.7 45.8
07:50 1020 30.12 849 25.07 13.9 57 66 7.8 46
07:55 1020 30.12 849 25.07 13.8 56.9 67 7.8 46
08:00 1020 30.12 849 25.07 13.8 56.9 68 8 46.4
08:05 1020 30.12 849 25.07 13.9 57.1 68 8.2 46.7
08:10 1020 30.12 849 25.07 14 57.2 67 8.1 46.5
08:15 1020 30.12 849 25.07 14.3 57.7 66 8 46.4
08:20 1020 30.12 849 25.07 14.9 58.8 64 8.1 46.5
08:25 1020 30.12 849 25.07 15.2 59.4 63 8.3 47
08:30 1020 30.12 849 25.07 15.2 59.4 62 8 46.4
08:35 1020 30.12 849 25.07 15.4 59.6 62 8.2 46.7
08:40 1020 30.12 849 25.07 15.3 59.5 62 8.1 46.6
08:45 1020 30.12 849 25.07 15.6 60 61 8.3 46.9
08:50 1020 30.12 849 25.07 15.7 60.3 62 8.5 47.3
08:55 1020 30.12 849 25.07 16 60.7 60 8.3 47
09:00 1020 30.12 849 25.07 16.2 61.1 60 8.6 47.4
09:05 1020 30.12 849 25.07 16.3 61.4 60 8.7 47.6
09:10 1020 30.12 849 25.07 16.1 61 62 8.9 48.1
09:15 1020 30.12 849 25.07 16.2 61.1 62 8.9 48
09:20 1020 30.12 849 25.07 16.2 61.2 62 8.9 48.1
09:25 1020 30.12 849 25.07 16.7 62 59 8.8 47.8
09:30 1020 30.12 849 25.07 16.6 61.9 60 9 48.2
09:35 1020 30.12 849 25.07 16.2 61.1 61 8.6 47.5
09:40 1020 30.12 849 25.07 16.1 61.1 61 8.7 47.7
09:45 1020 30.12 849 25.07 16 60.8 61 8.6 47.5
09:50 1020 30.12 849 25.07 15.9 60.5 62 8.6 47.4
09:55 1020 30.12 849 25.07 16 60.9 61 8.5 47.3
10:00 1020 30.12 849 25.07 16.1 60.9 61 8.6 47.5
10:05 1020 30.12 849 25.07 16.6 61.8 58 8.3 46.9
10:10 1020 30.12 849 25.07 17.2 62.9 57 8.8 47.8
10:15 1020 30.12 849 25.07 17.4 63.2 58 9 48.3
10:20 1020 30.12 849 25.07 17.6 63.7 55 8.5 47.4
10:25 1019 30.09 849 25.07 17.5 63.4 56 8.8 47.8
10:30 1019 30.09 849 25.07 17.9 64.2 55 8.8 47.8
10:35 1019 30.09 849 25.07 18.3 65 54 8.8 47.9
10:40 1019 30.09 849 25.07 18.7 65.6 53 9.1 48.4
10:45 1019 30.09 849 25.07 17.9 64.3 56 9.1 48.4
10:50 1019 30.09 849 25.07 18.1 64.5 51 7.8 46
10:55 1019 30.09 849 25.07 18.9 66 51 8.6 47.5
11:00 1019 30.09 849 25.07 18.5 65.2 52 8.6 47.5
11:05 1019 30.09 849 25.07 19 66.3 51 8.9 48.1
11:10 1019 30.09 849 25.07 18 64.4 53 8.4 47
11:15 1019 30.09 848 25.04 18.7 65.7 50 8.1 46.7
11:20 1019 30.09 848 25.04 19.3 66.8 48 8.1 46.5
11:25 1019 30.09 848 25.04 19.7 67.5 46 8 46.3
11:30 1019 30.09 848 25.04 20.3 68.6 45 8.2 46.7
11:35 1019 30.09 848 25.04 19.5 67.2 48 8.5 47.3
11:40 1019 30.09 848 25.04 20 68.1 46 8.2 46.8
11:45 1019 30.09 848 25.04 20.5 68.9 46 8.5 47.3
11:50 1019 30.09 848 25.04 20.7 69.3 45 8.5 47.2
11:55 1019 30.09 848 25.04 20.4 68.8 46 8.7 47.7
12:00 1019 30.09 848 25.04 20 67.9 46 8.2 46.8
12:05 1019 30.09 848 25.04 20.7 69.2 44 8 46.5
12:10 1019 30.09 848 25.04 20.2 68.3 48 8.9 47.9
12:15 1019 30.09 848 25.04 20.4 68.6 47 8.8 47.8
12:20 1019 30.09 848 25.04 20.3 68.6 47 8.9 48
12:25 1019 30.09 848 25.04 20.4 68.7 47 8.9 48
12:30 1019 30.09 848 25.04 20.9 69.6 44 8.4 47.1
12:35 1019 30.09 848 25.04 21.4 70.4 44 8.7 47.7
12:40 1019 30.09 848 25.04 21.5 70.6 42 8.2 46.8
12:45 1019 30.09 848 25.04 22.4 72.2 41 8.5 47.3
12:50 1019 30.09 848 25.04 21.7 71 42 8.5 47.4
12:55 1019 30.09 848 25.04 21.8 71.3 40 7.9 46.2
13:00 1018 30.06 848 25.04 21.7 71 45 9.5 49
13:05 1018 30.06 848 25.04 20.6 69 44 8.1 46.5
13:10 1018 30.06 848 25.04 20.4 68.8 44 7.9 46.2
13:15 1018 30.06 847 25.01 21.3 70.4 43 8.5 47.3
13:20 1018 30.06 847 25.01 21.4 70.6 42 8 46.5
13:25 1018 30.06 847 25.01 21.6 70.9 42 8.4 47.1
13:30 1018 30.06 847 25.01 21.1 70 43 8.3 46.9
13:35 1018 30.06 847 25.01 21.4 70.4 42 8 46.5
13:40 1018 30.06 847 25.01 22.1 71.9 39 7.6 45.7
13:45 1018 30.06 847 25.01 23.2 73.7 37 8 46.3
13:50 1018 30.06 847 25.01 22.9 73.2 39 8.3 46.9
13:55 1018 30.06 847 25.01 22.1 71.8 41 8.5 47.3
14:00 1018 30.06 847 25.01 22 71.5 40 7.9 46.3
14:05 1018 30.06 847 25.01 21.4 70.5 43 8.3 47
14:10 1018 30.06 847 25.01 21.5 70.7 44 8.8 47.8
14:15 1018 30.06 847 25.01 20.8 69.5 45 8.5 47.3
14:20 1018 30.06 847 25.01 20.4 68.7 45 8.3 47
14:25 1018 30.06 847 25.01 20.3 68.5 44 7.7 45.8
14:30 1018 30.06 847 25.01 20.3 68.5 43 7.5 45.5
14:35 1018 30.06 847 25.01 20.2 68.4 43 7.3 45.2
14:40 1018 30.06 847 25.01 20.2 68.3 41 6.7 44.1
14:45 1018 30.06 847 25.01 20 67.9 42 6.8 44.3
14:50 1017 30.03 847 25.01 20.5 68.8 41 6.8 44.2
14:55 1017 30.03 847 25.01 21.1 69.9 39 6.7 44.1
15:00 1017 30.03 847 25.01 21.3 70.3 47 9.8 49.6
15:05 1017 30.03 847 25.01 20 67.9 51 9.7 49.4
15:10 1017 30.03 847 25.01 19.6 67.2 49 8.8 47.8
15:15 1017 30.03 847 25.01 20 68 48 8.6 47.5
15:20 1017 30.03 847 25.01 20.6 69 43 7.9 46.2
15:25 1017 30.03 846 24.98 20.8 69.4 44 8.1 46.6
15:30 1017 30.03 846 24.98 21.3 70.4 39 7 44.7
15:35 1017 30.03 846 24.98 21.1 70 39 6.9 44.5
15:40 1017 30.03 846 24.98 21.1 69.9 40 7 44.5
15:45 1017 30.03 846 24.98 22.2 71.9 39 7.7 45.8
15:50 1017 30.03 846 24.98 23.2 73.8 34 6.7 44.1
15:55 1017 30.03 846 24.98 22.7 72.9 36 7.1 44.8
16:00 1017 30.03 846 24.98 23 73.5 37 7.7 45.8
16:05 1017 30.03 846 24.98 23.3 74 37 8 46.4
16:10 1017 30.03 846 24.98 23.4 74.1 33 6.6 43.8
16:15 1017 30.03 846 24.98 21.6 70.9 35 5.7 42.2
16:20 1017 30.03 846 24.98 20.1 68.2 35 4.2 39.6
16:25 1017 30.03 846 24.98 19.7 67.4 36 4.5 40.1
16:30 1017 30.03 846 24.98 19.4 66.9 37 4.5 40.1
16:35 1017 30.03 846 24.98 19.1 66.3 45 7.1 44.8
16:40 1017 30.03 846 24.98 18.7 65.6 48 7.6 45.6
16:45 1017 30.03 846 24.98 18.6 65.5 48 7.4 45.3
16:50 1017 30.03 846 24.98 18.7 65.6 46 7 44.6
16:55 1017 30.03 846 24.98 18.8 65.8 47 7.4 45.4
17:00 1017 30.03 846 24.98 18.6 65.4 54 9.3 48.8
17:05 1017 30.03 846 24.98 17.7 63.9 64 10.8 51.4
17:10 1017 30.03 846 24.98 16.7 62.1 69 11.2 52.1
17:15 1017 30.03 846 24.98 15.6 60.1 71 10.3 50.6
17:20 1017 30.03 846 24.98 15.1 59.2 71 10 49.9
17:25 1017 30.03 847 25.01 14.9 58.8 68 9 48.2
17:30 1017 30.03 847 25.01 14.6 58.4 67 8.7 47.6
17:35 1017 30.03 847 25.01 14.7 58.5 69 9.1 48.4
17:40 1018 30.06 847 25.01 14.7 58.4 70 9.3 48.8
17:45 1018 30.06 847 25.01 14.7 58.5 67 8.7 47.7
17:50 1017 30.03 847 25.01 14.8 58.6 61 7.3 45.1
17:55 1017 30.03 847 25.01 15.3 59.5 67 9.2 48.6
18:00 1017 30.03 847 25.01 15 59 69 9.5 49.1
18:05 1017 30.03 847 25.01 15.1 59.1 73 10.4 50.7
18:10 1017 30.03 847 25.01 14.6 58.2 78 10.7 51.3
18:15 1018 30.06 847 25.01 14.2 57.5 79 10.7 51.2
18:20 1018 30.06 847 25.01 14 57.2 79 10.4 50.7
18:25 1018 30.06 847 25.01 14.1 57.3 78 10.3 50.5
18:30 1018 30.06 847 25.01 14.2 57.6 81 10.9 51.7
18:35 1018 30.06 847 25.01 14.1 57.4 78 10.3 50.6
18:40 1018 30.06 847 25.01 14.1 57.4 79 10.5 51
18:45 1017 30.03 847 25.01 14.1 57.3 73 9.3 48.8
18:50 1017 30.03 847 25.01 14 57.3 76 9.9 49.8
18:55 1017 30.03 846 24.98 13.9 57 81 10.7 51.3
19:00 1017 30.03 846 24.98 13.6 56.5 79 10 50.1
19:05 1017 30.03 846 24.98 13.5 56.2 80 10.1 50.2
19:10 1017 30.03 847 25.01 13.5 56.4 79 10 50.1
19:15 1017 30.03 846 24.98 13.5 56.2 80 10.1 50.1
19:20 1017 30.03 847 25.01 13.5 56.2 80 10.1 50.2
19:25 1017 30.03 847 25.01 13.6 56.4 81 10.3 50.6
19:30 1018 30.06 847 25.01 13.8 56.8 79 10.3 50.5
19:35 1018 30.06 847 25.01 13.9 56.9 73 9.2 48.5
19:40 1018 30.06 847 25.01 14.1 57.3 70 8.6 47.6
19:45 1018 30.06 847 25.01 14.4 57.8 72 9.3 48.8
19:50 1018 30.06 847 25.01 14.3 57.7 74 9.7 49.5
19:55 1018 30.06 847 25.01 14.2 57.5 72 9.2 48.5
20:00 1018 30.06 847 25.01 14 57.2 74 9.4 48.9
20:05 1018 30.06 847 25.01 13.9 57 73 9.2 48.6
20:10 1018 30.06 847 25.01 13.8 56.9 79 10.2 50.3
20:15 1018 30.06 847 25.01 13.1 55.7 83 10.3 50.6
20:20 1018 30.06 847 25.01 12.9 55.2 80 9.5 49.2
20:25 1018 30.06 847 25.01 13 55.4 80 9.7 49.5
20:30 1018 30.06 847 25.01 12.9 55.1 82 9.9 49.7
20:35 1018 30.06 847 25.01 12.8 55.1 80 9.5 49.2
20:40 1018 30.06 847 25.01 13 55.3 80 9.5 49.1
20:45 1018 30.06 847 25.01 12.9 55.2 80 9.5 49.2
20:50 1018 30.06 847 25.01 12.9 55.3 80 9.7 49.4
20:55 1018 30.06 847 25.01 12.9 55.2 80 9.7 49.4
21:00 1018 30.06 847 25.01 12.7 54.8 79 9.1 48.4
21:05 1018 30.06 847 25.01 12.7 54.9 81 9.5 49.1
21:10 1018 30.06 847 25.01 12.7 54.8 80 9.4 49
21:15 1018 30.06 847 25.01 12.7 54.9 83 9.9 49.8
21:20 1018 30.06 847 25.01 12.6 54.7 83 9.8 49.6
21:25 1018 30.06 847 25.01 12.6 54.6 82 9.6 49.3
21:30 1018 30.06 847 25.01 12.7 54.8 81 9.6 49.2
21:35 1018 30.06 847 25.01 12.8 55 82 9.7 49.5
21:40 1018 30.06 847 25.01 12.9 55.2 84 10.2 50.4
21:45 1018 30.06 847 25.01 12.9 55.1 83 10 50
21:50 1018 30.06 847 25.01 12.8 55.1 84 10.2 50.3
21:55 1018 30.06 847 25.01 12.7 54.9 86 10.4 50.8
22:00 1018 30.06 847 25.01 12.5 54.5 86 10.2 50.4
22:05 1018 30.06 847 25.01 12.4 54.3 87 10.3 50.5
22:10 1018 30.06 847 25.01 12.3 54.1 87 10.1 50.2
22:15 1018 30.06 847 25.01 12.4 54.4 83 9.6 49.3
22:20 1018 30.06 847 25.01 12.8 55 76 8.7 47.7
22:25 1018 30.06 847 25.01 13.1 55.6 74 8.6 47.5
22:30 1018 30.06 847 25.01 13.2 55.7 78 9.5 49.1
22:35 1018 30.06 847 25.01 12.5 54.4 83 9.6 49.3
22:40 1018 30.06 847 25.01 12.1 53.7 84 9.4 49
22:45 1018 30.06 847 25.01 12 53.5 85 9.5 49.1
22:50 1018 30.06 847 25.01 11.9 53.4 84 9.2 48.6
22:55 1018 30.06 847 25.01 12 53.6 83 9.2 48.6
23:00 1017 30.03 847 25.01 12.1 53.7 84 9.5 49.1
23:05 1018 30.06 847 25.01 11.9 53.5 85 9.5 49.1
23:10 1018 30.06 847 25.01 11.8 53.3 85 9.4 48.9
23:15 1018 30.06 847 25.01 11.9 53.3 86 9.5 49.1
23:20 1018 30.06 847 25.01 11.8 53.3 85 9.5 49
23:25 1017 30.03 847 25.01 11.8 53.2 85 9.4 48.9
23:30 1017 30.03 847 25.01 11.8 53.3 85 9.4 48.8
23:35 1017 30.03 847 25.01 11.9 53.3 85 9.5 49.1
23:40 1017 30.03 846 24.98 11.9 53.4 85 9.5 49
23:45 1017 30.03 846 24.98 12.1 53.8 84 9.5 49.1
23:50 1017 30.03 846 24.98 12.1 53.8 84 9.5 49.1
23:55 1017 30.03 846 24.98 12.1 53.8 85 9.6 49.3
24:00 1017 30.03 846 24.98 11.9 53.3 86 9.5 49.1